Elk Falls, Kansas
Current Conditions -  °F | °C
As of 6:15 AM on Sunday 23 Nov 2014 (Local Time) from KIDP Reporting Station
Overcast Overcast  
Wind Chill: 55°   Ceiling: 600
Heat Index: 55°   Visibility: 7mi
Dew Point: 54°   Wind: 15mph
Humidity: 94%   Direction: 180°S
Pressure: 29.52"   Gusts: NA
Location:  37.37°N, 96.19°W
Report Text: KIDP 231215Z AUTO 18013KT 7SM OVC006 13/12 A2952 RMK AO2
Loading
Personal Weather Stations






























Interactive Weather Map New forecast layout! Learn more

10-Day Weather Forecast

Advertisements
Track Severe Weather on mobile